createdAt,value
2022-12-06T00:01:52.445Z,67.44
2022-12-06T00:04:00.140Z,68.42
2022-12-06T00:06:23.035Z,68.31
2022-12-06T00:08:24.803Z,68.12
2022-12-06T00:10:26.923Z,68.36
2022-12-06T00:12:28.751Z,68.54
2022-12-06T00:14:30.962Z,67.95
2022-12-06T00:16:33.947Z,69.47
2022-12-06T00:18:37.675Z,68.28
2022-12-06T00:20:39.779Z,69.58
2022-12-06T00:22:45.293Z,68.40
2022-12-06T00:24:47.127Z,69.20
2022-12-06T00:26:50.812Z,68.87
2022-12-06T00:28:54.629Z,68.42
2022-12-06T00:31:00.369Z,69.48
2022-12-06T00:33:02.483Z,68.29
2022-12-06T00:35:04.711Z,69.46
2022-12-06T00:37:06.862Z,70.06
2022-12-06T00:39:11.584Z,69.64
2022-12-06T00:41:18.447Z,70.09
2022-12-06T00:43:20.580Z,70.59
2022-12-06T00:45:22.434Z,69.84
2022-12-06T00:47:24.242Z,69.86
2022-12-06T00:49:26.493Z,70.05
2022-12-06T00:51:30.752Z,70.05
2022-12-06T00:53:32.709Z,70.23
2022-12-06T00:55:34.877Z,70.05
2022-12-06T00:57:36.685Z,70.10
2022-12-06T00:59:38.463Z,70.27
2022-12-06T01:01:41.480Z,70.92
2022-12-06T01:03:45.028Z,70.73
2022-12-06T01:05:49.693Z,70.79
2022-12-06T01:07:51.832Z,70.70
2022-12-06T01:09:53.622Z,70.73
2022-12-06T01:11:55.717Z,70.66
2022-12-06T01:13:58.471Z,70.55
2022-12-06T01:16:08.363Z,71.23
2022-12-06T01:18:10.247Z,70.43
2022-12-06T01:20:12.487Z,70.99
2022-12-06T01:22:14.310Z,71.11
2022-12-06T01:24:16.469Z,71.50
2022-12-06T01:26:33.153Z,70.15
2022-12-06T01:28:35.437Z,71.75
2022-12-06T01:30:40.008Z,71.27
2022-12-06T01:32:42.061Z,72.52
2022-12-06T01:34:45.353Z,72.18
2022-12-06T01:36:47.091Z,71.56
2022-12-06T01:38:54.287Z,72.19
2022-12-06T01:40:56.236Z,72.11
2022-12-06T01:42:58.046Z,70.67
2022-12-06T01:45:00.669Z,72.66
2022-12-06T01:47:02.590Z,72.51
2022-12-06T01:49:04.294Z,71.59
2022-12-06T01:51:09.534Z,72.10
2022-12-06T01:53:13.145Z,71.39
2022-12-06T01:55:17.031Z,72.01
2022-12-06T01:57:19.262Z,72.42
2022-12-06T01:59:22.469Z,72.26
2022-12-06T02:01:27.129Z,71.50
2022-12-06T02:03:32.190Z,71.88
2022-12-06T02:05:40.726Z,70.67
2022-12-06T02:07:44.605Z,71.59
2022-12-06T02:09:47.855Z,72.17
2022-12-06T02:11:49.633Z,71.82
2022-12-06T02:13:52.001Z,71.51
2022-12-06T02:16:16.012Z,71.80
2022-12-06T02:18:41.216Z,70.43
2022-12-06T02:20:55.266Z,71.21
2022-12-06T02:23:30.830Z,70.94
2022-12-06T02:26:10.533Z,71.25
2022-12-06T02:28:34.728Z,71.10
2022-12-06T02:30:46.090Z,70.92
2022-12-06T02:33:00.414Z,70.71
2022-12-06T02:35:34.525Z,70.76
2022-12-06T02:37:58.622Z,70.33
2022-12-06T02:40:08.081Z,71.17
2022-12-06T02:42:26.113Z,71.72
2022-12-06T02:44:42.200Z,71.73
2022-12-06T02:46:44.856Z,71.08
2022-12-06T02:48:49.786Z,72.48
2022-12-06T02:51:00.112Z,72.37
2022-12-06T02:53:04.284Z,71.99
2022-12-06T02:55:08.478Z,72.42
2022-12-06T02:57:10.279Z,72.22
2022-12-06T02:59:12.458Z,72.51
2022-12-06T03:01:37.841Z,73.68
2022-12-06T03:03:51.512Z,73.35
2022-12-06T03:06:02.571Z,72.74
2022-12-06T03:08:17.555Z,73.76
2022-12-06T03:10:43.615Z,72.69
2022-12-06T03:12:57.534Z,73.78
2022-12-06T03:15:11.989Z,72.66
2022-12-06T03:17:44.674Z,72.38
2022-12-06T03:19:51.307Z,72.90
2022-12-06T03:22:15.124Z,72.24
2022-12-06T03:24:17.698Z,72.96
2022-12-06T03:26:24.057Z,72.44
2022-12-06T03:28:27.284Z,72.61
2022-12-06T03:30:33.001Z,72.95
2022-12-06T03:32:37.493Z,73.29
2022-12-06T03:34:43.748Z,72.31
2022-12-06T03:36:49.118Z,72.43
2022-12-06T03:38:58.016Z,72.88
2022-12-06T03:41:05.613Z,73.08
2022-12-06T03:43:07.979Z,72.96
2022-12-06T03:45:12.244Z,72.78
2022-12-06T03:47:37.017Z,72.65
2022-12-06T03:49:43.301Z,72.37
2022-12-06T03:51:46.179Z,73.33
2022-12-06T03:53:53.641Z,73.27
2022-12-06T03:55:55.470Z,73.53
2022-12-06T03:57:57.426Z,73.04
2022-12-06T03:59:59.773Z,73.70
2022-12-06T04:02:01.996Z,73.11
2022-12-06T04:04:04.499Z,73.27
2022-12-06T04:06:07.806Z,74.20
2022-12-06T04:08:09.649Z,73.67
2022-12-06T04:10:11.787Z,74.22
2022-12-06T04:12:32.342Z,73.46
2022-12-06T04:14:39.325Z,72.66
2022-12-06T04:16:59.591Z,74.34
2022-12-06T04:19:01.698Z,73.75
2022-12-06T04:21:23.088Z,73.89
2022-12-06T04:23:26.110Z,73.97
2022-12-06T04:25:27.869Z,73.65
2022-12-06T04:27:48.077Z,73.68
2022-12-06T04:30:08.982Z,73.39
2022-12-06T04:32:29.223Z,74.24
2022-12-06T04:34:50.146Z,75.51
2022-12-06T04:37:10.822Z,75.03
2022-12-06T04:39:17.576Z,75.19
2022-12-06T04:41:41.318Z,74.23
2022-12-06T04:43:43.060Z,74.71
2022-12-06T04:45:45.190Z,75.25
2022-12-06T04:47:47.137Z,74.70
2022-12-06T04:49:49.253Z,75.29
2022-12-06T04:51:52.229Z,75.30
2022-12-06T04:53:54.073Z,75.17
2022-12-06T04:55:56.347Z,74.98
2022-12-06T04:57:58.095Z,74.90
2022-12-06T05:00:00.278Z,74.50
2022-12-06T05:02:02.763Z,73.95
2022-12-06T05:04:04.801Z,75.31
2022-12-06T05:06:06.953Z,74.15
2022-12-06T05:08:10.264Z,75.52
2022-12-06T05:10:12.175Z,75.52
2022-12-06T05:12:14.004Z,75.18
2022-12-06T05:14:16.125Z,75.68
2022-12-06T05:16:18.092Z,75.35
2022-12-06T05:18:20.823Z,75.36
2022-12-06T05:20:23.430Z,75.49
2022-12-06T05:22:25.262Z,75.25
2022-12-06T05:24:27.364Z,75.67
2022-12-06T05:26:29.463Z,76.89
2022-12-06T05:28:31.693Z,76.40
2022-12-06T05:30:33.812Z,76.31
2022-12-06T05:32:35.575Z,76.30
2022-12-06T05:34:37.813Z,76.45
2022-12-06T05:36:39.986Z,76.10
2022-12-06T05:38:45.732Z,75.07
2022-12-06T05:40:51.293Z,75.54
2022-12-06T05:42:53.050Z,75.86
2022-12-06T05:44:54.799Z,76.54
2022-12-06T05:46:57.170Z,75.91
2022-12-06T05:48:58.953Z,75.11
2022-12-06T05:51:00.780Z,74.85
2022-12-06T05:53:03.716Z,76.80
2022-12-06T05:55:05.691Z,75.70
2022-12-06T05:57:07.481Z,75.46
2022-12-06T05:59:09.709Z,76.75
2022-12-06T06:01:11.638Z,77.02
2022-12-06T06:03:13.820Z,76.26
2022-12-06T06:05:16.214Z,76.56
2022-12-06T06:07:17.980Z,75.84
2022-12-06T06:09:20.202Z,75.86
2022-12-06T06:11:22.058Z,75.55
2022-12-06T06:13:24.015Z,75.95
2022-12-06T06:15:26.219Z,75.48
2022-12-06T06:17:27.988Z,74.92
2022-12-06T06:19:30.191Z,74.24
2022-12-06T06:21:32.445Z,74.70
2022-12-06T06:23:34.290Z,75.45
2022-12-06T06:25:39.861Z,76.46
2022-12-06T06:27:42.034Z,75.75
2022-12-06T06:29:45.611Z,76.38
2022-12-06T06:31:47.628Z,75.79
2022-12-06T06:33:50.020Z,75.98
2022-12-06T06:35:51.759Z,75.91
2022-12-06T06:37:53.528Z,74.98
2022-12-06T06:39:56.458Z,74.76
2022-12-06T06:41:58.373Z,76.97
2022-12-06T06:44:00.260Z,76.91
2022-12-06T06:46:04.639Z,76.46
2022-12-06T06:48:06.642Z,76.50
2022-12-06T06:50:08.721Z,77.66
2022-12-06T06:52:10.934Z,77.79
2022-12-06T06:54:12.950Z,77.44
2022-12-06T06:56:15.382Z,77.05
2022-12-06T06:58:17.538Z,77.22
2022-12-06T07:00:19.419Z,76.75
2022-12-06T07:02:21.188Z,77.99
2022-12-06T07:04:23.425Z,77.22
2022-12-06T07:06:25.310Z,77.42
2022-12-06T07:08:28.746Z,76.99
2022-12-06T07:10:31.710Z,77.81
2022-12-06T07:12:33.526Z,77.28
2022-12-06T07:14:35.354Z,76.93
2022-12-06T07:16:37.702Z,77.68
2022-12-06T07:18:39.595Z,77.48
2022-12-06T07:20:41.394Z,76.73
2022-12-06T07:22:43.605Z,76.07
2022-12-06T07:24:50.780Z,76.88
2022-12-06T07:26:56.848Z,76.88
2022-12-06T07:28:59.926Z,75.44
2022-12-06T07:31:14.379Z,75.67
2022-12-06T07:33:16.201Z,76.73
2022-12-06T07:35:18.055Z,77.51
2022-12-06T07:37:20.761Z,76.73
2022-12-06T07:39:22.914Z,76.83
2022-12-06T07:41:46.570Z,76.59
2022-12-06T07:44:08.779Z,77.30
2022-12-06T07:46:11.817Z,76.38
2022-12-06T07:48:14.124Z,77.43
2022-12-06T07:50:18.773Z,76.20
2022-12-06T07:52:21.093Z,76.25
2022-12-06T07:54:24.161Z,76.87
2022-12-06T07:56:26.379Z,76.87
2022-12-06T07:58:28.587Z,76.57
2022-12-06T08:00:30.723Z,76.38
2022-12-06T08:02:32.924Z,76.93
2022-12-06T08:04:35.311Z,75.83
2022-12-06T08:06:37.406Z,76.88
2022-12-06T08:08:39.666Z,76.24
2022-12-06T08:10:41.518Z,76.23
2022-12-06T08:12:43.656Z,75.58
2022-12-06T08:14:45.528Z,76.97
2022-12-06T08:16:47.259Z,76.84
2022-12-06T08:18:49.772Z,76.80
2022-12-06T08:20:53.301Z,77.89
2022-12-06T08:22:55.099Z,76.55
2022-12-06T08:24:57.320Z,76.72
2022-12-06T08:27:00.222Z,75.96
2022-12-06T08:29:01.949Z,76.82
2022-12-06T08:31:26.395Z,75.92
2022-12-06T08:33:28.748Z,76.53
2022-12-06T08:35:30.922Z,75.95
2022-12-06T08:37:34.386Z,75.76
2022-12-06T08:39:36.563Z,76.38
2022-12-06T08:41:58.448Z,76.39
2022-12-06T08:44:02.817Z,75.61
2022-12-06T08:46:04.734Z,76.77
2022-12-06T08:48:06.562Z,76.63
2022-12-06T08:50:09.153Z,76.26
2022-12-06T08:52:11.074Z,77.19
2022-12-06T08:54:15.271Z,76.52
2022-12-06T08:56:18.923Z,76.69
2022-12-06T08:58:20.671Z,76.23
2022-12-06T09:00:22.838Z,76.11
2022-12-06T09:02:24.983Z,76.31
2022-12-06T09:04:28.039Z,75.88
2022-12-06T09:06:30.538Z,76.04
2022-12-06T09:08:32.717Z,74.68
2022-12-06T09:10:34.493Z,75.12
2022-12-06T09:12:36.339Z,75.36
2022-12-06T09:14:38.631Z,75.10
2022-12-06T09:16:43.519Z,75.33
2022-12-06T09:18:46.459Z,75.28
2022-12-06T09:20:48.642Z,74.78
2022-12-06T09:22:50.428Z,75.03
2022-12-06T09:24:52.210Z,74.26
2022-12-06T09:26:54.469Z,73.41
2022-12-06T09:28:57.098Z,74.35
2022-12-06T09:30:59.028Z,74.27
2022-12-06T09:33:01.249Z,73.89
2022-12-06T09:35:03.157Z,73.24
2022-12-06T09:37:12.029Z,73.18
2022-12-06T09:39:18.631Z,73.03
2022-12-06T09:41:39.133Z,73.53
2022-12-06T09:44:02.771Z,73.01
2022-12-06T09:46:42.359Z,71.11
2022-12-06T09:48:53.510Z,73.48
2022-12-06T09:50:58.350Z,72.03
2022-12-06T09:53:19.257Z,71.69
2022-12-06T09:55:35.296Z,72.38
2022-12-06T09:57:42.996Z,72.62
2022-12-06T10:00:22.108Z,71.33
2022-12-06T10:03:02.031Z,72.86
2022-12-06T10:05:22.098Z,72.49
2022-12-06T10:07:29.896Z,72.32
2022-12-06T10:09:40.809Z,73.19
2022-12-06T10:11:54.664Z,72.77
2022-12-06T10:14:21.423Z,73.39
2022-12-06T10:16:41.613Z,73.64
2022-12-06T10:19:23.357Z,73.63
2022-12-06T10:21:42.437Z,73.59
2022-12-06T10:24:12.195Z,73.35
2022-12-06T10:26:21.950Z,73.62
2022-12-06T10:28:39.258Z,73.75
2022-12-06T10:30:52.405Z,73.50
2022-12-06T10:33:27.688Z,74.17
2022-12-06T10:35:43.300Z,73.74
2022-12-06T10:38:08.901Z,73.71
2022-12-06T10:40:21.163Z,74.29
2022-12-06T10:42:34.960Z,73.73
2022-12-06T10:44:44.579Z,73.81
2022-12-06T10:47:05.305Z,73.79
2022-12-06T10:49:24.003Z,76.81
2022-12-06T10:51:48.780Z,75.77
2022-12-06T10:54:02.035Z,76.71
2022-12-06T10:56:13.834Z,77.61
2022-12-06T10:58:25.136Z,77.87
2022-12-06T11:00:31.124Z,75.05
2022-12-06T11:02:58.902Z,75.12
2022-12-06T11:05:04.680Z,75.56
2022-12-06T11:07:16.234Z,76.63
2022-12-06T11:09:38.023Z,76.82
2022-12-06T11:11:41.399Z,75.50
2022-12-06T11:14:00.411Z,74.76
2022-12-06T11:16:05.995Z,76.71
2022-12-06T11:18:13.918Z,77.65
2022-12-06T11:20:22.959Z,73.51
2022-12-06T11:22:41.109Z,73.80
2022-12-06T11:24:50.782Z,73.00
2022-12-06T11:27:00.915Z,72.83
2022-12-06T11:29:12.823Z,74.20
2022-12-06T11:31:28.139Z,75.17
2022-12-06T11:33:33.360Z,74.27
2022-12-06T11:35:35.203Z,75.25
2022-12-06T11:37:41.442Z,76.01
2022-12-06T11:39:52.713Z,75.79
2022-12-06T11:41:57.685Z,76.05
2022-12-06T11:43:59.997Z,76.35
2022-12-06T11:46:05.791Z,76.80
2022-12-06T11:48:19.848Z,74.11
2022-12-06T11:50:22.999Z,75.90
2022-12-06T11:52:37.399Z,75.25
2022-12-06T11:54:44.441Z,75.16
2022-12-06T11:56:47.009Z,76.17
2022-12-06T11:59:21.723Z,74.72
2022-12-06T12:01:47.653Z,74.91
2022-12-06T12:03:49.603Z,75.14
2022-12-06T12:05:51.988Z,75.85
2022-12-06T12:08:00.810Z,76.70
2022-12-06T12:10:22.539Z,75.00
2022-12-06T12:12:56.161Z,74.82
2022-12-06T12:14:59.012Z,74.82
2022-12-06T12:17:03.336Z,75.43
2022-12-06T12:19:49.386Z,73.77
2022-12-06T12:21:54.609Z,75.72
2022-12-06T12:23:57.846Z,74.93
2022-12-06T12:26:14.674Z,75.08
2022-12-06T12:28:26.686Z,75.66
2022-12-06T12:30:36.920Z,76.70
2022-12-06T12:32:38.760Z,76.00
2022-12-06T12:34:42.968Z,77.36
2022-12-06T12:36:50.950Z,75.52
2022-12-06T12:38:59.112Z,76.53
2022-12-06T12:41:19.692Z,77.17
2022-12-06T12:43:24.955Z,76.49
2022-12-06T12:45:27.859Z,76.25
2022-12-06T12:47:32.085Z,76.61
2022-12-06T12:49:36.405Z,76.78
2022-12-06T12:51:41.435Z,77.66
2022-12-06T12:53:55.083Z,76.96
2022-12-06T12:56:13.110Z,77.69
2022-12-06T12:58:14.866Z,76.85
2022-12-06T13:00:30.988Z,76.92
2022-12-06T13:02:36.011Z,76.14
2022-12-06T13:05:30.804Z,75.32
2022-12-06T13:07:27.758Z,76.11
2022-12-06T13:09:55.455Z,75.82
2022-12-06T13:12:05.259Z,75.96
2022-12-06T13:14:18.064Z,75.59
2022-12-06T13:16:27.732Z,75.74
2022-12-06T13:18:38.904Z,76.92
2022-12-06T13:20:41.410Z,76.88
2022-12-06T13:22:45.496Z,77.51
2022-12-06T13:24:56.675Z,77.66
2022-12-06T13:27:02.473Z,76.63
2022-12-06T13:29:31.834Z,76.80
2022-12-06T13:31:40.142Z,75.50
2022-12-06T13:33:48.493Z,77.16
2022-12-06T13:36:06.450Z,76.72
2022-12-06T13:38:25.982Z,75.93
2022-12-06T13:40:46.083Z,76.39
2022-12-06T13:42:48.324Z,76.31
2022-12-06T13:44:50.067Z,76.19
2022-12-06T13:47:27.223Z,75.45
2022-12-06T13:49:48.598Z,75.65
2022-12-06T13:51:51.684Z,75.97
2022-12-06T13:54:05.560Z,76.96
2022-12-06T13:56:29.473Z,76.58
2022-12-06T13:58:40.076Z,76.89
2022-12-06T14:00:41.834Z,76.65
2022-12-06T14:02:46.479Z,76.76
2022-12-06T14:04:48.400Z,76.74
2022-12-06T14:06:52.707Z,76.73
2022-12-06T14:09:01.004Z,76.46
2022-12-06T14:11:29.218Z,78.26
2022-12-06T14:13:31.414Z,77.84
2022-12-06T14:15:36.182Z,78.14
2022-12-06T14:20:19.996Z,78.34
2022-12-06T14:22:25.063Z,77.47
2022-12-06T14:24:39.921Z,77.76
2022-12-06T14:26:41.874Z,77.44
2022-12-06T14:28:43.983Z,77.07
2022-12-06T14:30:46.373Z,77.73
2022-12-06T14:32:50.770Z,78.77
2022-12-06T14:35:06.030Z,78.95
2022-12-06T14:37:20.613Z,80.07
2022-12-06T14:39:28.394Z,81.30
2022-12-06T14:41:55.598Z,80.70
2022-12-06T14:43:57.418Z,79.16
2022-12-06T14:46:03.570Z,78.60
2022-12-06T14:48:05.815Z,78.09
2022-12-06T14:50:48.112Z,78.23
2022-12-06T14:52:59.665Z,77.73
2022-12-06T14:55:16.457Z,78.25
2022-12-06T14:57:24.889Z,78.19
2022-12-06T15:00:12.760Z,77.77
2022-12-06T15:01:55.755Z,77.59
2022-12-06T15:04:00.398Z,78.32
2022-12-06T15:06:23.826Z,77.83
2022-12-06T15:08:26.023Z,78.59
2022-12-06T15:10:30.158Z,79.08
2022-12-06T15:12:50.842Z,78.22
2022-12-06T15:14:52.970Z,78.71
2022-12-06T15:17:10.480Z,77.53
2022-12-06T15:19:17.404Z,78.29
2022-12-06T15:21:19.263Z,78.36
2022-12-06T15:23:36.430Z,77.32
2022-12-06T15:25:38.822Z,78.30
2022-12-06T15:27:40.656Z,78.14
2022-12-06T15:29:43.135Z,79.04
2022-12-06T15:31:52.193Z,79.43
2022-12-06T15:33:54.998Z,79.46
2022-12-06T15:35:59.084Z,79.02
2022-12-06T15:38:01.078Z,79.83
2022-12-06T15:40:04.405Z,79.28
2022-12-06T15:42:20.401Z,78.68
2022-12-06T15:44:25.579Z,79.61
2022-12-06T15:46:29.444Z,79.39
2022-12-06T15:48:36.703Z,78.71
2022-12-06T15:50:38.939Z,78.86
2022-12-06T15:52:41.116Z,78.45
2022-12-06T15:54:43.470Z,78.32
2022-12-06T15:56:45.924Z,78.91
2022-12-06T15:58:49.102Z,86.60
2022-12-06T16:00:50.982Z,83.74
2022-12-06T16:02:54.636Z,81.58
2022-12-06T16:04:56.891Z,81.59
2022-12-06T16:06:58.783Z,81.39
2022-12-06T16:09:00.583Z,80.37
2022-12-06T16:11:11.791Z,82.04
2022-12-06T16:13:23.707Z,81.15
2022-12-06T16:15:26.903Z,81.12
2022-12-06T16:17:29.076Z,82.50
2022-12-06T16:19:50.878Z,82.98
2022-12-06T16:21:55.719Z,83.29
2022-12-06T16:24:18.023Z,83.63
2022-12-06T16:26:20.286Z,82.42
2022-12-06T16:28:22.158Z,83.33
2022-12-06T16:30:33.942Z,82.37
2022-12-06T16:32:37.623Z,83.06
2022-12-06T16:34:39.534Z,83.24
2022-12-06T16:36:58.464Z,83.97
2022-12-06T16:39:04.623Z,83.70
2022-12-06T16:41:17.566Z,83.75
2022-12-06T16:43:20.569Z,82.46
2022-12-06T16:45:22.443Z,83.35
2022-12-06T16:51:50.621Z,82.75
2022-12-06T16:53:54.253Z,82.80
2022-12-06T16:55:56.042Z,82.99
2022-12-06T16:57:58.443Z,82.19
2022-12-06T17:00:00.712Z,82.38
2022-12-06T17:02:05.907Z,83.27
2022-12-06T17:04:11.112Z,82.76
2022-12-06T17:06:13.001Z,83.15
2022-12-06T17:08:20.292Z,81.31
2022-12-06T17:10:23.760Z,82.20
2022-12-06T17:12:27.518Z,82.41
2022-12-06T17:14:30.947Z,83.51
2022-12-06T17:16:35.030Z,82.13
2022-12-06T17:18:40.755Z,82.17
2022-12-06T17:20:42.598Z,82.68
2022-12-06T17:22:45.499Z,80.95
2022-12-06T17:24:47.424Z,82.30
2022-12-06T17:26:50.134Z,81.79
2022-12-06T17:28:52.659Z,81.79
2022-12-06T17:30:54.532Z,82.32
2022-12-06T17:32:56.704Z,82.07
2022-12-06T17:34:58.736Z,82.05
2022-12-06T17:37:02.540Z,81.95
2022-12-06T17:39:08.801Z,81.07
2022-12-06T17:41:41.232Z,79.90
2022-12-06T17:43:43.309Z,81.57
2022-12-06T17:45:45.593Z,81.35
2022-12-06T17:47:47.527Z,81.05
2022-12-06T17:49:51.139Z,81.04
2022-12-06T17:51:53.743Z,81.24
2022-12-06T17:53:57.427Z,81.10
2022-12-06T17:56:30.546Z,79.94
2022-12-06T17:58:32.671Z,80.49
2022-12-06T18:00:34.751Z,81.83
2022-12-06T18:02:37.027Z,81.33
2022-12-06T18:04:39.124Z,81.36
2022-12-06T18:06:42.627Z,80.69
2022-12-06T18:08:44.991Z,80.68
2022-12-06T18:10:46.838Z,80.63
2022-12-06T18:12:50.306Z,80.20
2022-12-06T18:14:52.726Z,80.17
2022-12-06T18:16:54.599Z,80.52
2022-12-06T18:19:00.408Z,80.10
2022-12-06T18:21:06.070Z,79.66
2022-12-06T18:23:09.824Z,79.95
2022-12-06T18:25:11.720Z,79.71
2022-12-06T18:27:13.924Z,80.08
2022-12-06T18:29:21.347Z,80.30
2022-12-06T18:31:25.020Z,79.40
2022-12-06T18:33:31.000Z,79.80
2022-12-06T18:35:36.036Z,79.58
2022-12-06T18:37:38.581Z,79.64
2022-12-06T18:39:40.728Z,79.24
2022-12-06T18:41:44.814Z,79.38
2022-12-06T18:43:47.747Z,78.77
2022-12-06T18:46:00.527Z,80.07
2022-12-06T18:48:02.590Z,79.66
2022-12-06T18:50:04.981Z,79.75
2022-12-06T18:52:07.567Z,79.18
2022-12-06T18:54:11.192Z,79.05
2022-12-06T18:56:19.430Z,79.06
2022-12-06T18:58:21.689Z,79.36
2022-12-06T19:00:23.499Z,79.31
2022-12-06T19:02:25.729Z,80.07
2022-12-06T19:04:28.185Z,78.61
2022-12-06T19:06:35.132Z,79.15
2022-12-06T19:08:43.800Z,78.99
2022-12-06T19:10:47.038Z,79.07
2022-12-06T19:12:48.939Z,79.01
2022-12-06T19:14:51.282Z,79.50
2022-12-06T19:16:54.629Z,78.54
2022-12-06T19:19:00.689Z,78.83
2022-12-06T19:21:02.571Z,78.53
2022-12-06T19:23:04.872Z,79.45
2022-12-06T19:25:06.954Z,79.53
2022-12-06T19:27:09.595Z,79.17
2022-12-06T19:29:16.818Z,78.17
2022-12-06T19:31:24.866Z,78.93
2022-12-06T19:33:27.706Z,78.38
2022-12-06T19:35:32.475Z,78.66
2022-12-06T19:37:34.355Z,79.21
2022-12-06T19:39:38.769Z,78.88
2022-12-06T19:42:03.204Z,78.91
2022-12-06T19:44:17.580Z,78.33
2022-12-06T19:46:26.237Z,77.73
2022-12-06T19:48:30.746Z,78.29
2022-12-06T19:50:39.716Z,77.92
2022-12-06T19:52:41.900Z,77.87
2022-12-06T19:54:45.496Z,76.94
2022-12-06T19:56:53.465Z,77.83
2022-12-06T19:58:57.994Z,77.99
2022-12-06T20:01:00.104Z,76.67
2022-12-06T20:03:02.599Z,77.40
2022-12-06T20:05:04.828Z,77.41
2022-12-06T20:07:07.683Z,77.35
2022-12-06T20:09:10.151Z,77.22
2022-12-06T20:11:32.595Z,77.06
2022-12-06T20:13:36.298Z,76.97
2022-12-06T20:15:38.968Z,76.71
2022-12-06T20:17:41.096Z,76.90
2022-12-06T20:19:46.030Z,75.98
2022-12-06T20:21:49.048Z,77.29
2022-12-06T20:23:53.693Z,75.21
2022-12-06T20:25:56.989Z,74.65
2022-12-06T20:28:02.468Z,76.11
2022-12-06T20:30:06.712Z,75.15
2022-12-06T20:32:09.420Z,75.46
2022-12-06T20:34:35.347Z,76.42
2022-12-06T20:36:38.443Z,77.11
2022-12-06T20:38:40.486Z,77.34
2022-12-06T20:40:42.324Z,76.62
2022-12-06T20:42:46.346Z,76.68
2022-12-06T20:44:50.015Z,77.71
2022-12-06T20:46:53.735Z,77.18
2022-12-06T20:48:58.727Z,77.09
2022-12-06T20:51:09.419Z,76.63
2022-12-06T20:53:11.722Z,77.06
2022-12-06T20:55:14.110Z,75.08
2022-12-06T20:57:16.442Z,77.22
2022-12-06T20:59:20.269Z,76.75
2022-12-06T21:01:26.701Z,76.69
2022-12-06T21:03:29.474Z,77.24
2022-12-06T21:05:31.257Z,76.69
2022-12-06T21:07:33.530Z,77.38
2022-12-06T21:09:35.559Z,77.57
2022-12-06T21:11:38.647Z,77.18
2022-12-06T21:13:41.758Z,77.19
2022-12-06T21:15:45.661Z,77.02
2022-12-06T21:17:48.147Z,76.92
2022-12-06T21:19:50.056Z,77.57
2022-12-06T21:21:57.969Z,77.13
2022-12-06T21:24:06.026Z,77.22
2022-12-06T21:26:10.662Z,76.56
2022-12-06T21:28:15.272Z,77.11
2022-12-06T21:30:17.581Z,76.55
2022-12-06T21:32:21.081Z,76.65
2022-12-06T21:34:23.183Z,75.71
2022-12-06T21:36:27.994Z,77.33
2022-12-06T21:38:31.303Z,77.08
2022-12-06T21:40:34.086Z,77.51
2022-12-06T21:42:37.138Z,77.46
2022-12-06T21:44:38.972Z,76.44
2022-12-06T21:46:40.804Z,76.75
2022-12-06T21:48:43.750Z,76.32
2022-12-06T21:50:45.605Z,77.69
2022-12-06T21:52:47.846Z,78.27
2022-12-06T21:54:51.194Z,77.73
2022-12-06T21:56:53.256Z,78.32
2022-12-06T21:58:55.695Z,77.61
2022-12-06T22:01:05.382Z,76.89
2022-12-06T22:03:07.622Z,77.22
2022-12-06T22:05:10.228Z,77.54
2022-12-06T22:07:12.411Z,77.22
2022-12-06T22:09:15.391Z,76.70
2022-12-06T22:11:20.215Z,76.61
2022-12-06T22:13:24.028Z,75.80
2022-12-06T22:15:28.100Z,76.59
2022-12-06T22:17:32.608Z,75.74
2022-12-06T22:19:34.446Z,76.29
2022-12-06T22:21:36.287Z,75.14
2022-12-06T22:23:38.458Z,76.05
2022-12-06T22:25:40.297Z,76.88
2022-12-06T22:27:42.113Z,76.16
2022-12-06T22:29:44.272Z,76.78
2022-12-06T22:31:46.218Z,76.49
2022-12-06T22:33:48.850Z,76.49
2022-12-06T22:35:51.319Z,77.04
2022-12-06T22:37:53.553Z,76.75
2022-12-06T22:39:55.349Z,76.13
2022-12-06T22:41:57.658Z,76.33
2022-12-06T22:44:01.803Z,75.77
2022-12-06T22:46:09.220Z,76.26
2022-12-06T22:48:11.618Z,75.88
2022-12-06T22:50:13.447Z,76.24
2022-12-06T22:52:16.976Z,76.23
2022-12-06T22:54:18.813Z,76.01
2022-12-06T22:56:21.590Z,75.45
2022-12-06T22:58:23.391Z,75.61
2022-12-06T23:00:25.196Z,76.79
2022-12-06T23:02:27.426Z,76.27
2022-12-06T23:04:29.405Z,76.62
2022-12-06T23:06:32.186Z,76.49
2022-12-06T23:08:34.654Z,76.35
2022-12-06T23:10:36.515Z,76.34
2022-12-06T23:12:39.606Z,75.71
2022-12-06T23:14:41.789Z,77.71
2022-12-06T23:16:45.208Z,76.90
2022-12-06T23:18:47.153Z,76.38
2022-12-06T23:20:49.266Z,76.51
2022-12-06T23:22:51.091Z,76.62
2022-12-06T23:24:55.133Z,77.09
2022-12-06T23:26:58.318Z,76.90
2022-12-06T23:29:00.656Z,76.86
2022-12-06T23:31:08.361Z,77.35
2022-12-06T23:33:10.523Z,76.59
2022-12-06T23:35:12.314Z,76.91
2022-12-06T23:37:14.536Z,77.26
2022-12-06T23:39:16.489Z,76.47
2022-12-06T23:41:24.178Z,77.09
2022-12-06T23:43:26.347Z,76.01
2022-12-06T23:45:28.371Z,76.47
2022-12-06T23:47:30.766Z,76.67
2022-12-06T23:49:32.703Z,76.31
2022-12-06T23:51:37.281Z,76.68
2022-12-06T23:53:39.723Z,77.30
2022-12-06T23:55:41.551Z,76.41
2022-12-06T23:57:43.668Z,77.48
2022-12-06T23:59:45.423Z,76.51
